sensor_id;sensor_type;location;lat;lon;timestamp;P1;durP1;ratioP1;P2;durP2;ratioP2
28844;SDS011;15976;47.938;7.758;2023-12-20T00:01:09;1.75;;;1.33;;
28844;SDS011;15976;47.938;7.758;2023-12-20T00:03:37;1.98;;;1.58;;
28844;SDS011;15976;47.938;7.758;2023-12-20T00:06:08;2.17;;;1.50;;
28844;SDS011;15976;47.938;7.758;2023-12-20T00:08:37;1.83;;;1.38;;
28844;SDS011;15976;47.938;7.758;2023-12-20T00:11:04;2.55;;;1.73;;
28844;SDS011;15976;47.938;7.758;2023-12-20T00:13:31;2.10;;;1.60;;
28844;SDS011;15976;47.938;7.758;2023-12-20T00:15:58;2.53;;;2.00;;
28844;SDS011;15976;47.938;7.758;2023-12-20T00:18:25;2.55;;;1.83;;
28844;SDS011;15976;47.938;7.758;2023-12-20T00:20:52;2.50;;;1.70;;
28844;SDS011;15976;47.938;7.758;2023-12-20T00:23:19;2.47;;;1.70;;
28844;SDS011;15976;47.938;7.758;2023-12-20T00:25:47;2.05;;;1.80;;
28844;SDS011;15976;47.938;7.758;2023-12-20T00:28:14;3.35;;;1.80;;
28844;SDS011;15976;47.938;7.758;2023-12-20T00:30:41;2.15;;;1.65;;
28844;SDS011;15976;47.938;7.758;2023-12-20T00:33:09;4.18;;;1.92;;
28844;SDS011;15976;47.938;7.758;2023-12-20T00:35:37;2.05;;;1.65;;
28844;SDS011;15976;47.938;7.758;2023-12-20T00:38:04;2.47;;;1.80;;
28844;SDS011;15976;47.938;7.758;2023-12-20T00:40:32;1.90;;;1.70;;
28844;SDS011;15976;47.938;7.758;2023-12-20T00:43:00;2.30;;;1.92;;
28844;SDS011;15976;47.938;7.758;2023-12-20T00:45:27;2.85;;;2.10;;
28844;SDS011;15976;47.938;7.758;2023-12-20T00:47:54;2.33;;;2.00;;
28844;SDS011;15976;47.938;7.758;2023-12-20T00:50:21;3.70;;;2.00;;
28844;SDS011;15976;47.938;7.758;2023-12-20T00:52:52;2.10;;;1.90;;
28844;SDS011;15976;47.938;7.758;2023-12-20T00:55:21;2.78;;;2.15;;
28844;SDS011;15976;47.938;7.758;2023-12-20T00:57:48;4.50;;;2.10;;
28844;SDS011;15976;47.938;7.758;2023-12-20T01:00:15;2.67;;;2.08;;
28844;SDS011;15976;47.938;7.758;2023-12-20T01:02:42;3.05;;;2.15;;
28844;SDS011;15976;47.938;7.758;2023-12-20T01:05:09;3.45;;;2.25;;
28844;SDS011;15976;47.938;7.758;2023-12-20T01:07:36;3.28;;;2.20;;
28844;SDS011;15976;47.938;7.758;2023-12-20T01:10:03;3.00;;;2.42;;
28844;SDS011;15976;47.938;7.758;2023-12-20T01:12:31;3.30;;;2.78;;
28844;SDS011;15976;47.938;7.758;2023-12-20T01:14:58;2.55;;;2.15;;
28844;SDS011;15976;47.938;7.758;2023-12-20T01:17:25;2.67;;;2.20;;
28844;SDS011;15976;47.938;7.758;2023-12-20T01:19:52;3.30;;;2.15;;
28844;SDS011;15976;47.938;7.758;2023-12-20T01:22:19;2.58;;;2.17;;
28844;SDS011;15976;47.938;7.758;2023-12-20T01:24:46;3.63;;;2.13;;
28844;SDS011;15976;47.938;7.758;2023-12-20T01:27:13;3.33;;;1.75;;
28844;SDS011;15976;47.938;7.758;2023-12-20T01:29:42;6.68;;;2.15;;
28844;SDS011;15976;47.938;7.758;2023-12-20T01:32:09;1.88;;;1.65;;
28844;SDS011;15976;47.938;7.758;2023-12-20T01:34:36;2.72;;;1.80;;
28844;SDS011;15976;47.938;7.758;2023-12-20T01:37:04;4.18;;;1.88;;
28844;SDS011;15976;47.938;7.758;2023-12-20T01:39:31;2.90;;;2.10;;
28844;SDS011;15976;47.938;7.758;2023-12-20T01:41:58;5.78;;;2.13;;
28844;SDS011;15976;47.938;7.758;2023-12-20T01:44:25;2.42;;;1.80;;
28844;SDS011;15976;47.938;7.758;2023-12-20T01:46:53;2.05;;;1.90;;
28844;SDS011;15976;47.938;7.758;2023-12-20T01:49:21;2.58;;;1.48;;
28844;SDS011;15976;47.938;7.758;2023-12-20T01:51:49;3.70;;;1.60;;
28844;SDS011;15976;47.938;7.758;2023-12-20T01:54:17;1.40;;;1.27;;
28844;SDS011;15976;47.938;7.758;2023-12-20T01:56:45;2.05;;;1.70;;
28844;SDS011;15976;47.938;7.758;2023-12-20T01:59:13;2.35;;;1.60;;
28844;SDS011;15976;47.938;7.758;2023-12-20T02:01:40;1.50;;;1.33;;
28844;SDS011;15976;47.938;7.758;2023-12-20T02:04:07;1.55;;;1.45;;
28844;SDS011;15976;47.938;7.758;2023-12-20T02:06:34;1.80;;;1.30;;
28844;SDS011;15976;47.938;7.758;2023-12-20T02:09:03;1.17;;;1.08;;
28844;SDS011;15976;47.938;7.758;2023-12-20T02:11:30;1.52;;;1.40;;
28844;SDS011;15976;47.938;7.758;2023-12-20T02:13:58;1.20;;;1.08;;
28844;SDS011;15976;47.938;7.758;2023-12-20T02:16:25;2.58;;;1.10;;
28844;SDS011;15976;47.938;7.758;2023-12-20T02:18:53;18.83;;;2.25;;
28844;SDS011;15976;47.938;7.758;2023-12-20T02:21:33;2.88;;;1.58;;
28844;SDS011;15976;47.938;7.758;2023-12-20T02:24:01;2.03;;;1.30;;
28844;SDS011;15976;47.938;7.758;2023-12-20T02:26:28;6.72;;;1.85;;
28844;SDS011;15976;47.938;7.758;2023-12-20T02:28:55;4.47;;;1.98;;
28844;SDS011;15976;47.938;7.758;2023-12-20T02:31:22;2.35;;;1.67;;
28844;SDS011;15976;47.938;7.758;2023-12-20T02:33:50;1.73;;;1.60;;
28844;SDS011;15976;47.938;7.758;2023-12-20T02:36:17;2.95;;;1.90;;
28844;SDS011;15976;47.938;7.758;2023-12-20T02:38:44;3.05;;;1.83;;
28844;SDS011;15976;47.938;7.758;2023-12-20T02:41:11;1.98;;;1.80;;
28844;SDS011;15976;47.938;7.758;2023-12-20T02:43:38;3.10;;;1.75;;
28844;SDS011;15976;47.938;7.758;2023-12-20T02:46:05;2.88;;;2.13;;
28844;SDS011;15976;47.938;7.758;2023-12-20T02:48:32;2.05;;;1.85;;
28844;SDS011;15976;47.938;7.758;2023-12-20T02:51:00;5.18;;;1.95;;
28844;SDS011;15976;47.938;7.758;2023-12-20T02:53:27;2.05;;;1.77;;
28844;SDS011;15976;47.938;7.758;2023-12-20T02:55:54;2.30;;;2.00;;
28844;SDS011;15976;47.938;7.758;2023-12-20T02:58:20;2.78;;;1.90;;
28844;SDS011;15976;47.938;7.758;2023-12-20T03:00:48;2.08;;;1.70;;
28844;SDS011;15976;47.938;7.758;2023-12-20T03:03:15;2.50;;;1.65;;
28844;SDS011;15976;47.938;7.758;2023-12-20T03:05:42;2.95;;;1.70;;
28844;SDS011;15976;47.938;7.758;2023-12-20T03:08:09;5.10;;;1.77;;
28844;SDS011;15976;47.938;7.758;2023-12-20T03:10:37;3.42;;;1.92;;
28844;SDS011;15976;47.938;7.758;2023-12-20T03:13:04;6.13;;;2.13;;
28844;SDS011;15976;47.938;7.758;2023-12-20T03:15:31;2.40;;;1.55;;
28844;SDS011;15976;47.938;7.758;2023-12-20T03:17:58;21.55;;;3.05;;
28844;SDS011;15976;47.938;7.758;2023-12-20T03:20:27;4.15;;;1.73;;
28844;SDS011;15976;47.938;7.758;2023-12-20T03:22:55;3.95;;;2.00;;
28844;SDS011;15976;47.938;7.758;2023-12-20T03:25:22;3.88;;;1.75;;
28844;SDS011;15976;47.938;7.758;2023-12-20T03:27:49;3.80;;;1.90;;
28844;SDS011;15976;47.938;7.758;2023-12-20T03:30:17;3.10;;;1.80;;
28844;SDS011;15976;47.938;7.758;2023-12-20T03:32:44;2.17;;;1.63;;
28844;SDS011;15976;47.938;7.758;2023-12-20T03:35:11;3.28;;;1.40;;
28844;SDS011;15976;47.938;7.758;2023-12-20T03:37:39;5.07;;;2.25;;
28844;SDS011;15976;47.938;7.758;2023-12-20T03:40:08;5.40;;;1.70;;
28844;SDS011;15976;47.938;7.758;2023-12-20T03:42:36;4.38;;;1.83;;
28844;SDS011;15976;47.938;7.758;2023-12-20T03:45:03;2.33;;;1.67;;
28844;SDS011;15976;47.938;7.758;2023-12-20T03:47:30;2.88;;;1.58;;
28844;SDS011;15976;47.938;7.758;2023-12-20T03:49:57;2.20;;;1.60;;
28844;SDS011;15976;47.938;7.758;2023-12-20T03:52:24;2.70;;;1.75;;
28844;SDS011;15976;47.938;7.758;2023-12-20T03:54:51;3.65;;;1.33;;
28844;SDS011;15976;47.938;7.758;2023-12-20T03:57:21;1.67;;;1.42;;
28844;SDS011;15976;47.938;7.758;2023-12-20T03:59:48;4.82;;;1.67;;
28844;SDS011;15976;47.938;7.758;2023-12-20T04:02:14;2.25;;;1.48;;
28844;SDS011;15976;47.938;7.758;2023-12-20T04:04:42;1.85;;;1.60;;
28844;SDS011;15976;47.938;7.758;2023-12-20T04:07:09;1.48;;;1.30;;
28844;SDS011;15976;47.938;7.758;2023-12-20T04:09:37;1.30;;;1.20;;
28844;SDS011;15976;47.938;7.758;2023-12-20T04:12:04;1.40;;;1.30;;
28844;SDS011;15976;47.938;7.758;2023-12-20T04:14:32;1.77;;;1.40;;
28844;SDS011;15976;47.938;7.758;2023-12-20T04:16:59;1.30;;;1.20;;
28844;SDS011;15976;47.938;7.758;2023-12-20T04:19:26;1.50;;;1.15;;
28844;SDS011;15976;47.938;7.758;2023-12-20T04:21:53;1.42;;;1.05;;
28844;SDS011;15976;47.938;7.758;2023-12-20T04:24:20;1.00;;;1.00;;
28844;SDS011;15976;47.938;7.758;2023-12-20T04:26:48;1.75;;;1.35;;
28844;SDS011;15976;47.938;7.758;2023-12-20T04:29:15;1.20;;;1.10;;
28844;SDS011;15976;47.938;7.758;2023-12-20T04:31:42;1.30;;;1.02;;
28844;SDS011;15976;47.938;7.758;2023-12-20T04:34:10;1.27;;;1.17;;
28844;SDS011;15976;47.938;7.758;2023-12-20T04:36:37;1.27;;;1.17;;
28844;SDS011;15976;47.938;7.758;2023-12-20T04:39:04;1.80;;;1.15;;
28844;SDS011;15976;47.938;7.758;2023-12-20T04:41:33;1.30;;;1.20;;
28844;SDS011;15976;47.938;7.758;2023-12-20T04:44:00;1.45;;;1.00;;
28844;SDS011;15976;47.938;7.758;2023-12-20T04:46:27;1.25;;;1.10;;
28844;SDS011;15976;47.938;7.758;2023-12-20T04:48:54;1.70;;;1.10;;
28844;SDS011;15976;47.938;7.758;2023-12-20T04:51:21;1.92;;;1.20;;
28844;SDS011;15976;47.938;7.758;2023-12-20T04:53:48;1.48;;;1.10;;
28844;SDS011;15976;47.938;7.758;2023-12-20T04:56:15;1.30;;;1.08;;
28844;SDS011;15976;47.938;7.758;2023-12-20T04:58:42;1.30;;;1.20;;
28844;SDS011;15976;47.938;7.758;2023-12-20T05:01:10;1.25;;;1.15;;
28844;SDS011;15976;47.938;7.758;2023-12-20T05:03:38;1.50;;;1.40;;
28844;SDS011;15976;47.938;7.758;2023-12-20T05:06:05;1.40;;;1.30;;
28844;SDS011;15976;47.938;7.758;2023-12-20T05:08:32;3.95;;;1.40;;
28844;SDS011;15976;47.938;7.758;2023-12-20T05:10:59;1.45;;;1.30;;
28844;SDS011;15976;47.938;7.758;2023-12-20T05:13:27;1.30;;;1.20;;
28844;SDS011;15976;47.938;7.758;2023-12-20T05:16:07;1.77;;;1.45;;
28844;SDS011;15976;47.938;7.758;2023-12-20T05:18:35;2.85;;;1.33;;
28844;SDS011;15976;47.938;7.758;2023-12-20T05:21:03;1.60;;;1.50;;
28844;SDS011;15976;47.938;7.758;2023-12-20T05:23:31;2.47;;;1.60;;
28844;SDS011;15976;47.938;7.758;2023-12-20T05:25:58;1.98;;;1.50;;
28844;SDS011;15976;47.938;7.758;2023-12-20T05:28:25;2.08;;;1.50;;
28844;SDS011;15976;47.938;7.758;2023-12-20T05:30:53;1.63;;;1.52;;
28844;SDS011;15976;47.938;7.758;2023-12-20T05:33:23;1.50;;;1.40;;
28844;SDS011;15976;47.938;7.758;2023-12-20T05:35:51;1.80;;;1.30;;
28844;SDS011;15976;47.938;7.758;2023-12-20T05:38:18;1.15;;;1.13;;
28844;SDS011;15976;47.938;7.758;2023-12-20T05:40:46;1.67;;;1.30;;
28844;SDS011;15976;47.938;7.758;2023-12-20T05:43:14;1.50;;;1.40;;
28844;SDS011;15976;47.938;7.758;2023-12-20T05:45:41;1.33;;;1.23;;
28844;SDS011;15976;47.938;7.758;2023-12-20T05:48:08;1.52;;;1.20;;
28844;SDS011;15976;47.938;7.758;2023-12-20T05:50:36;2.53;;;1.10;;
28844;SDS011;15976;47.938;7.758;2023-12-20T05:53:03;1.70;;;1.40;;
28844;SDS011;15976;47.938;7.758;2023-12-20T05:55:31;1.65;;;1.20;;
28844;SDS011;15976;47.938;7.758;2023-12-20T05:57:58;1.42;;;1.20;;
28844;SDS011;15976;47.938;7.758;2023-12-20T06:00:27;1.20;;;1.10;;
28844;SDS011;15976;47.938;7.758;2023-12-20T06:02:55;1.35;;;1.10;;
28844;SDS011;15976;47.938;7.758;2023-12-20T06:05:23;2.03;;;1.83;;
28844;SDS011;15976;47.938;7.758;2023-12-20T06:07:50;2.22;;;2.03;;
28844;SDS011;15976;47.938;7.758;2023-12-20T06:10:17;1.40;;;1.30;;
28844;SDS011;15976;47.938;7.758;2023-12-20T06:12:44;2.03;;;1.20;;
28844;SDS011;15976;47.938;7.758;2023-12-20T06:15:13;1.67;;;1.58;;
28844;SDS011;15976;47.938;7.758;2023-12-20T06:17:40;3.72;;;2.00;;
28844;SDS011;15976;47.938;7.758;2023-12-20T06:20:09;3.72;;;2.55;;
28844;SDS011;15976;47.938;7.758;2023-12-20T06:22:37;3.20;;;2.60;;
28844;SDS011;15976;47.938;7.758;2023-12-20T06:25:04;3.47;;;2.13;;
28844;SDS011;15976;47.938;7.758;2023-12-20T06:27:32;1.80;;;1.70;;
28844;SDS011;15976;47.938;7.758;2023-12-20T06:29:59;1.30;;;1.20;;
28844;SDS011;15976;47.938;7.758;2023-12-20T06:32:26;1.67;;;1.40;;
28844;SDS011;15976;47.938;7.758;2023-12-20T06:34:55;2.20;;;2.00;;
28844;SDS011;15976;47.938;7.758;2023-12-20T06:37:22;2.30;;;2.08;;
28844;SDS011;15976;47.938;7.758;2023-12-20T06:39:50;4.10;;;2.88;;
28844;SDS011;15976;47.938;7.758;2023-12-20T06:42:17;2.83;;;2.25;;
28844;SDS011;15976;47.938;7.758;2023-12-20T06:44:47;3.10;;;2.10;;
28844;SDS011;15976;47.938;7.758;2023-12-20T06:47:14;3.85;;;2.53;;
28844;SDS011;15976;47.938;7.758;2023-12-20T06:49:41;3.55;;;2.72;;
28844;SDS011;15976;47.938;7.758;2023-12-20T06:52:11;7.10;;;3.50;;
28844;SDS011;15976;47.938;7.758;2023-12-20T06:54:39;8.23;;;3.50;;
28844;SDS011;15976;47.938;7.758;2023-12-20T06:57:07;7.78;;;2.90;;
28844;SDS011;15976;47.938;7.758;2023-12-20T06:59:37;4.47;;;2.50;;
28844;SDS011;15976;47.938;7.758;2023-12-20T07:02:05;2.85;;;1.80;;
28844;SDS011;15976;47.938;7.758;2023-12-20T07:04:40;3.85;;;2.58;;
28844;SDS011;15976;47.938;7.758;2023-12-20T07:07:07;3.47;;;2.20;;
28844;SDS011;15976;47.938;7.758;2023-12-20T07:09:36;2.55;;;1.60;;
28844;SDS011;15976;47.938;7.758;2023-12-20T07:12:03;2.35;;;1.45;;
28844;SDS011;15976;47.938;7.758;2023-12-20T07:14:31;5.47;;;2.78;;
28844;SDS011;15976;47.938;7.758;2023-12-20T07:16:58;6.88;;;3.55;;
28844;SDS011;15976;47.938;7.758;2023-12-20T07:19:24;5.18;;;2.88;;
28844;SDS011;15976;47.938;7.758;2023-12-20T07:21:52;4.30;;;1.70;;
28844;SDS011;15976;47.938;7.758;2023-12-20T07:24:20;2.28;;;1.70;;
28844;SDS011;15976;47.938;7.758;2023-12-20T07:26:47;2.85;;;1.60;;
28844;SDS011;15976;47.938;7.758;2023-12-20T07:29:16;2.90;;;1.63;;
28844;SDS011;15976;47.938;7.758;2023-12-20T07:31:43;2.72;;;1.70;;
28844;SDS011;15976;47.938;7.758;2023-12-20T07:34:10;2.17;;;1.58;;
28844;SDS011;15976;47.938;7.758;2023-12-20T07:36:37;4.82;;;3.10;;
28844;SDS011;15976;47.938;7.758;2023-12-20T07:39:04;3.55;;;2.40;;
28844;SDS011;15976;47.938;7.758;2023-12-20T07:41:31;4.63;;;3.35;;
28844;SDS011;15976;47.938;7.758;2023-12-20T07:43:58;3.42;;;2.63;;
28844;SDS011;15976;47.938;7.758;2023-12-20T07:46:25;2.70;;;2.00;;
28844;SDS011;15976;47.938;7.758;2023-12-20T07:48:53;2.03;;;1.67;;
28844;SDS011;15976;47.938;7.758;2023-12-20T07:51:20;2.47;;;1.50;;
28844;SDS011;15976;47.938;7.758;2023-12-20T07:53:47;2.08;;;1.52;;
28844;SDS011;15976;47.938;7.758;2023-12-20T07:56:18;1.77;;;1.63;;
28844;SDS011;15976;47.938;7.758;2023-12-20T07:58:46;1.70;;;1.60;;
28844;SDS011;15976;47.938;7.758;2023-12-20T08:01:19;2.05;;;1.80;;
28844;SDS011;15976;47.938;7.758;2023-12-20T08:03:48;1.52;;;1.42;;
28844;SDS011;15976;47.938;7.758;2023-12-20T08:06:18;1.77;;;1.63;;
28844;SDS011;15976;47.938;7.758;2023-12-20T08:08:45;1.65;;;1.55;;
28844;SDS011;15976;47.938;7.758;2023-12-20T08:11:20;2.30;;;2.10;;
28844;SDS011;15976;47.938;7.758;2023-12-20T08:13:47;2.10;;;1.60;;
28844;SDS011;15976;47.938;7.758;2023-12-20T08:16:14;3.40;;;2.22;;
28844;SDS011;15976;47.938;7.758;2023-12-20T08:18:45;5.32;;;2.75;;
28844;SDS011;15976;47.938;7.758;2023-12-20T08:21:12;5.25;;;3.00;;
28844;SDS011;15976;47.938;7.758;2023-12-20T08:23:40;2.72;;;2.00;;
28844;SDS011;15976;47.938;7.758;2023-12-20T08:26:07;3.55;;;2.20;;
28844;SDS011;15976;47.938;7.758;2023-12-20T08:28:34;2.22;;;1.83;;
28844;SDS011;15976;47.938;7.758;2023-12-20T08:31:03;3.30;;;2.97;;
28844;SDS011;15976;47.938;7.758;2023-12-20T08:33:46;4.22;;;2.45;;
28844;SDS011;15976;47.938;7.758;2023-12-20T08:36:14;2.92;;;2.70;;
28844;SDS011;15976;47.938;7.758;2023-12-20T08:38:44;3.70;;;2.85;;
28844;SDS011;15976;47.938;7.758;2023-12-20T08:41:12;3.22;;;2.65;;
28844;SDS011;15976;47.938;7.758;2023-12-20T08:43:40;4.20;;;3.55;;
28844;SDS011;15976;47.938;7.758;2023-12-20T08:46:08;10.73;;;7.72;;
28844;SDS011;15976;47.938;7.758;2023-12-20T08:48:38;10.45;;;6.22;;
28844;SDS011;15976;47.938;7.758;2023-12-20T08:51:06;10.88;;;7.55;;
28844;SDS011;15976;47.938;7.758;2023-12-20T08:53:36;13.65;;;8.07;;
28844;SDS011;15976;47.938;7.758;2023-12-20T08:56:03;12.32;;;6.95;;
28844;SDS011;15976;47.938;7.758;2023-12-20T08:58:32;14.75;;;7.95;;
28844;SDS011;15976;47.938;7.758;2023-12-20T09:01:00;5.78;;;3.35;;
28844;SDS011;15976;47.938;7.758;2023-12-20T09:03:27;5.75;;;4.30;;
28844;SDS011;15976;47.938;7.758;2023-12-20T09:05:55;7.43;;;5.35;;
28844;SDS011;15976;47.938;7.758;2023-12-20T09:08:24;5.65;;;3.15;;
28844;SDS011;15976;47.938;7.758;2023-12-20T09:10:51;3.15;;;2.83;;
28844;SDS011;15976;47.938;7.758;2023-12-20T09:13:18;5.38;;;3.20;;
28844;SDS011;15976;47.938;7.758;2023-12-20T09:15:46;5.32;;;3.38;;
28844;SDS011;15976;47.938;7.758;2023-12-20T09:18:13;4.70;;;3.20;;
28844;SDS011;15976;47.938;7.758;2023-12-20T09:20:40;3.85;;;3.45;;
28844;SDS011;15976;47.938;7.758;2023-12-20T09:23:09;4.40;;;3.30;;
28844;SDS011;15976;47.938;7.758;2023-12-20T09:25:37;5.13;;;3.03;;
28844;SDS011;15976;47.938;7.758;2023-12-20T09:28:04;3.13;;;2.65;;
28844;SDS011;15976;47.938;7.758;2023-12-20T09:30:31;3.13;;;2.83;;
28844;SDS011;15976;47.938;7.758;2023-12-20T09:32:58;2.90;;;2.55;;
28844;SDS011;15976;47.938;7.758;2023-12-20T09:35:25;4.35;;;2.30;;
28844;SDS011;15976;47.938;7.758;2023-12-20T09:37:53;2.95;;;2.40;;
28844;SDS011;15976;47.938;7.758;2023-12-20T09:40:20;3.50;;;3.03;;
28844;SDS011;15976;47.938;7.758;2023-12-20T09:43:08;3.50;;;3.03;;
28844;SDS011;15976;47.938;7.758;2023-12-20T09:45:40;4.93;;;3.70;;
28844;SDS011;15976;47.938;7.758;2023-12-20T09:48:08;5.47;;;2.80;;
28844;SDS011;15976;47.938;7.758;2023-12-20T09:50:37;4.32;;;2.80;;
28844;SDS011;15976;47.938;7.758;2023-12-20T09:53:07;7.65;;;2.70;;
28844;SDS011;15976;47.938;7.758;2023-12-20T09:55:36;5.15;;;2.92;;
28844;SDS011;15976;47.938;7.758;2023-12-20T09:58:04;7.00;;;3.10;;
28844;SDS011;15976;47.938;7.758;2023-12-20T10:00:34;5.88;;;3.50;;
28844;SDS011;15976;47.938;7.758;2023-12-20T10:03:02;6.20;;;4.10;;
28844;SDS011;15976;47.938;7.758;2023-12-20T10:05:34;6.35;;;3.65;;
28844;SDS011;15976;47.938;7.758;2023-12-20T10:08:02;6.25;;;4.15;;
28844;SDS011;15976;47.938;7.758;2023-12-20T10:10:31;3.20;;;2.75;;
28844;SDS011;15976;47.938;7.758;2023-12-20T10:13:11;5.10;;;2.95;;
28844;SDS011;15976;47.938;7.758;2023-12-20T10:15:40;4.32;;;3.40;;
28844;SDS011;15976;47.938;7.758;2023-12-20T10:18:09;6.30;;;4.03;;
28844;SDS011;15976;47.938;7.758;2023-12-20T10:20:37;11.65;;;5.45;;
28844;SDS011;15976;47.938;7.758;2023-12-20T10:23:07;13.73;;;6.45;;
28844;SDS011;15976;47.938;7.758;2023-12-20T10:25:37;12.52;;;7.35;;
28844;SDS011;15976;47.938;7.758;2023-12-20T10:28:15;11.35;;;5.80;;
28844;SDS011;15976;47.938;7.758;2023-12-20T10:30:46;8.82;;;5.80;;
28844;SDS011;15976;47.938;7.758;2023-12-20T10:33:13;9.75;;;4.82;;
28844;SDS011;15976;47.938;7.758;2023-12-20T10:35:49;6.60;;;5.10;;
28844;SDS011;15976;47.938;7.758;2023-12-20T10:38:17;13.07;;;6.70;;
28844;SDS011;15976;47.938;7.758;2023-12-20T10:40:45;7.38;;;4.10;;
28844;SDS011;15976;47.938;7.758;2023-12-20T10:43:13;8.60;;;3.60;;
28844;SDS011;15976;47.938;7.758;2023-12-20T10:45:42;8.00;;;4.13;;
28844;SDS011;15976;47.938;7.758;2023-12-20T10:48:13;14.07;;;5.18;;
28844;SDS011;15976;47.938;7.758;2023-12-20T10:50:41;9.20;;;5.50;;
28844;SDS011;15976;47.938;7.758;2023-12-20T10:53:12;29.80;;;19.52;;
28844;SDS011;15976;47.938;7.758;2023-12-20T10:55:40;13.90;;;6.72;;
28844;SDS011;15976;47.938;7.758;2023-12-20T10:58:09;13.50;;;6.55;;
28844;SDS011;15976;47.938;7.758;2023-12-20T11:00:39;6.05;;;4.07;;
28844;SDS011;15976;47.938;7.758;2023-12-20T11:03:11;7.10;;;3.85;;
28844;SDS011;15976;47.938;7.758;2023-12-20T11:08:28;8.15;;;3.78;;
28844;SDS011;15976;47.938;7.758;2023-12-20T11:11:04;8.48;;;3.83;;
28844;SDS011;15976;47.938;7.758;2023-12-20T11:13:37;7.30;;;4.10;;
28844;SDS011;15976;47.938;7.758;2023-12-20T11:16:11;8.32;;;4.10;;
28844;SDS011;15976;47.938;7.758;2023-12-20T11:18:41;10.75;;;4.18;;
28844;SDS011;15976;47.938;7.758;2023-12-20T11:21:09;10.43;;;3.70;;
28844;SDS011;15976;47.938;7.758;2023-12-20T11:23:37;4.15;;;3.30;;
28844;SDS011;15976;47.938;7.758;2023-12-20T11:26:06;8.68;;;3.80;;
28844;SDS011;15976;47.938;7.758;2023-12-20T11:28:33;6.13;;;3.97;;
28844;SDS011;15976;47.938;7.758;2023-12-20T11:31:01;7.85;;;3.50;;
28844;SDS011;15976;47.938;7.758;2023-12-20T11:33:38;7.60;;;3.30;;
28844;SDS011;15976;47.938;7.758;2023-12-20T11:36:13;11.07;;;3.78;;
28844;SDS011;15976;47.938;7.758;2023-12-20T11:38:49;8.30;;;3.92;;
28844;SDS011;15976;47.938;7.758;2023-12-20T11:41:23;11.70;;;5.30;;
28844;SDS011;15976;47.938;7.758;2023-12-20T11:43:54;9.10;;;3.30;;
28844;SDS011;15976;47.938;7.758;2023-12-20T11:46:22;11.00;;;4.50;;
28844;SDS011;15976;47.938;7.758;2023-12-20T11:48:50;6.05;;;2.70;;
28844;SDS011;15976;47.938;7.758;2023-12-20T11:51:19;10.23;;;3.70;;
28844;SDS011;15976;47.938;7.758;2023-12-20T11:53:50;6.57;;;2.92;;
28844;SDS011;15976;47.938;7.758;2023-12-20T11:56:19;7.40;;;3.08;;
28844;SDS011;15976;47.938;7.758;2023-12-20T11:58:46;7.32;;;4.40;;
28844;SDS011;15976;47.938;7.758;2023-12-20T12:01:19;7.55;;;2.72;;
28844;SDS011;15976;47.938;7.758;2023-12-20T12:03:47;8.20;;;2.80;;
28844;SDS011;15976;47.938;7.758;2023-12-20T12:06:15;15.20;;;10.13;;
28844;SDS011;15976;47.938;7.758;2023-12-20T12:08:42;7.15;;;2.83;;
28844;SDS011;15976;47.938;7.758;2023-12-20T12:11:09;5.18;;;2.65;;
28844;SDS011;15976;47.938;7.758;2023-12-20T12:13:37;6.45;;;3.00;;
28844;SDS011;15976;47.938;7.758;2023-12-20T12:16:04;8.48;;;3.25;;
28844;SDS011;15976;47.938;7.758;2023-12-20T12:18:32;6.22;;;2.80;;
28844;SDS011;15976;47.938;7.758;2023-12-20T12:21:01;7.35;;;2.70;;
28844;SDS011;15976;47.938;7.758;2023-12-20T12:23:38;6.03;;;2.88;;
28844;SDS011;15976;47.938;7.758;2023-12-20T12:26:06;8.25;;;2.50;;
28844;SDS011;15976;47.938;7.758;2023-12-20T12:28:34;5.38;;;2.30;;
28844;SDS011;15976;47.938;7.758;2023-12-20T12:31:01;12.25;;;2.97;;
28844;SDS011;15976;47.938;7.758;2023-12-20T12:33:29;7.50;;;2.58;;
28844;SDS011;15976;47.938;7.758;2023-12-20T12:35:56;7.50;;;2.67;;
28844;SDS011;15976;47.938;7.758;2023-12-20T12:38:24;7.30;;;2.35;;
28844;SDS011;15976;47.938;7.758;2023-12-20T12:40:51;5.93;;;2.17;;
28844;SDS011;15976;47.938;7.758;2023-12-20T12:43:20;6.38;;;2.28;;
28844;SDS011;15976;47.938;7.758;2023-12-20T12:45:49;6.63;;;2.03;;
28844;SDS011;15976;47.938;7.758;2023-12-20T12:48:17;4.85;;;2.20;;
28844;SDS011;15976;47.938;7.758;2023-12-20T12:50:47;5.00;;;2.35;;
28844;SDS011;15976;47.938;7.758;2023-12-20T12:53:16;9.38;;;2.83;;
28844;SDS011;15976;47.938;7.758;2023-12-20T12:55:47;9.02;;;4.50;;
28844;SDS011;15976;47.938;7.758;2023-12-20T12:58:14;5.47;;;2.78;;
28844;SDS011;15976;47.938;7.758;2023-12-20T13:00:41;5.70;;;2.35;;
28844;SDS011;15976;47.938;7.758;2023-12-20T13:03:09;6.80;;;2.85;;
28844;SDS011;15976;47.938;7.758;2023-12-20T13:05:36;8.18;;;3.10;;
28844;SDS011;15976;47.938;7.758;2023-12-20T13:08:08;8.77;;;3.83;;
28844;SDS011;15976;47.938;7.758;2023-12-20T13:10:36;12.65;;;2.90;;
28844;SDS011;15976;47.938;7.758;2023-12-20T13:13:03;5.65;;;2.47;;
28844;SDS011;15976;47.938;7.758;2023-12-20T13:15:30;6.63;;;2.25;;
28844;SDS011;15976;47.938;7.758;2023-12-20T13:17:58;6.47;;;2.20;;
28844;SDS011;15976;47.938;7.758;2023-12-20T13:20:26;9.07;;;2.80;;
28844;SDS011;15976;47.938;7.758;2023-12-20T13:22:54;4.60;;;2.17;;
28844;SDS011;15976;47.938;7.758;2023-12-20T13:25:21;6.25;;;1.92;;
28844;SDS011;15976;47.938;7.758;2023-12-20T13:27:48;10.05;;;4.50;;
28844;SDS011;15976;47.938;7.758;2023-12-20T13:30:16;7.88;;;3.40;;
28844;SDS011;15976;47.938;7.758;2023-12-20T13:32:43;11.02;;;3.20;;
28844;SDS011;15976;47.938;7.758;2023-12-20T13:35:11;5.60;;;2.50;;
28844;SDS011;15976;47.938;7.758;2023-12-20T13:37:38;7.03;;;2.45;;
28844;SDS011;15976;47.938;7.758;2023-12-20T13:40:05;5.47;;;3.10;;
28844;SDS011;15976;47.938;7.758;2023-12-20T13:42:33;9.43;;;3.15;;
28844;SDS011;15976;47.938;7.758;2023-12-20T13:45:00;6.90;;;2.67;;
28844;SDS011;15976;47.938;7.758;2023-12-20T13:47:28;7.28;;;2.40;;
28844;SDS011;15976;47.938;7.758;2023-12-20T13:49:55;5.15;;;2.47;;
28844;SDS011;15976;47.938;7.758;2023-12-20T13:52:23;8.80;;;2.97;;
28844;SDS011;15976;47.938;7.758;2023-12-20T13:54:50;5.18;;;2.65;;
28844;SDS011;15976;47.938;7.758;2023-12-20T13:57:18;10.52;;;5.72;;
28844;SDS011;15976;47.938;7.758;2023-12-20T14:00:05;7.43;;;4.28;;
28844;SDS011;15976;47.938;7.758;2023-12-20T14:02:39;8.57;;;3.60;;
28844;SDS011;15976;47.938;7.758;2023-12-20T14:05:06;10.00;;;5.75;;
28844;SDS011;15976;47.938;7.758;2023-12-20T14:07:33;6.68;;;3.47;;
28844;SDS011;15976;47.938;7.758;2023-12-20T14:10:01;6.72;;;3.85;;
28844;SDS011;15976;47.938;7.758;2023-12-20T14:12:29;8.20;;;4.18;;
28844;SDS011;15976;47.938;7.758;2023-12-20T14:14:56;6.18;;;3.30;;
28844;SDS011;15976;47.938;7.758;2023-12-20T14:17:23;6.53;;;2.85;;
28844;SDS011;15976;47.938;7.758;2023-12-20T14:19:51;6.15;;;2.78;;
28844;SDS011;15976;47.938;7.758;2023-12-20T14:22:18;6.22;;;3.10;;
28844;SDS011;15976;47.938;7.758;2023-12-20T14:24:45;5.80;;;2.63;;
28844;SDS011;15976;47.938;7.758;2023-12-20T14:27:13;6.22;;;3.40;;
28844;SDS011;15976;47.938;7.758;2023-12-20T14:29:40;9.90;;;2.90;;
28844;SDS011;15976;47.938;7.758;2023-12-20T14:32:07;5.32;;;2.30;;
28844;SDS011;15976;47.938;7.758;2023-12-20T14:34:36;5.90;;;2.78;;
28844;SDS011;15976;47.938;7.758;2023-12-20T14:37:04;6.80;;;2.55;;
28844;SDS011;15976;47.938;7.758;2023-12-20T14:39:32;10.73;;;2.53;;
28844;SDS011;15976;47.938;7.758;2023-12-20T14:41:59;9.30;;;2.85;;
28844;SDS011;15976;47.938;7.758;2023-12-20T14:44:26;8.35;;;2.17;;
28844;SDS011;15976;47.938;7.758;2023-12-20T14:46:53;6.00;;;2.15;;
28844;SDS011;15976;47.938;7.758;2023-12-20T14:49:20;8.05;;;2.58;;
28844;SDS011;15976;47.938;7.758;2023-12-20T14:51:47;10.32;;;3.38;;
28844;SDS011;15976;47.938;7.758;2023-12-20T14:54:14;6.97;;;1.80;;